Time;durP1;ratioP1;P1;durP2;ratioP2;P2;SDS_P1;SDS_P2;PMS_P1;PMS_P2;Temp;Humidity;BMP_temperature;BMP_pressure;BME280_temperature;BME280_humidity;BME280_pressure;Samples;Min_cycle;Max_cycle;Signal;HPM_P1;HPM_P2
2023/06/21 00:08:58;;;;;;;;;;;25.70;52.00;;;25.01;50.42;100701.09;12271946;19;19915;-91
2023/06/21 00:13:00;;;;;;;;;;;25.50;51.90;;;24.88;50.58;100685.66;12267521;19;20248;-91
2023/06/21 00:17:02;;;;;;;;;;;25.50;51.90;;;24.91;50.79;100704.00;12267814;19;19925;-91
2023/06/21 00:21:03;;;;;;;;;;;25.50;51.90;;;24.87;50.78;100716.03;12268622;19;19927;-91
2023/06/21 00:25:07;;;;;;;;;;;25.40;51.90;;;24.58;50.63;100679.38;12264556;19;20278;-91
2023/06/21 00:29:08;;;;;;;;;;;25.40;52.00;;;24.71;50.82;100701.00;12269856;19;19903;-91
2023/06/21 00:33:10;;;;;;;;;;;25.30;52.00;;;24.78;50.68;100722.47;12264935;19;19915;-91
2023/06/21 00:37:12;;;;;;;;;;;25.30;52.00;;;24.64;50.81;100719.56;12268111;19;19911;-91
2023/06/21 00:41:13;;;;;;;;;;;25.30;52.00;;;24.64;50.97;100732.91;12266224;19;19915;-91
2023/06/21 00:45:15;;;;;;;;;;;25.30;52.10;;;24.63;50.79;100733.94;12258839;19;19919;-92
2023/06/21 00:49:20;;;;;;;;;;;25.20;52.10;;;24.22;50.61;100670.06;12266420;19;19915;-91
2023/06/21 00:53:23;;;;;;;;;;;25.10;52.00;;;24.53;50.68;100719.13;12262676;19;19985;-91
2023/06/21 00:57:28;;;;;;;;;;;25.10;52.00;;;24.27;51.02;100686.34;12266787;19;19918;-91
2023/06/21 01:01:31;;;;;;;;;;;25.10;52.40;;;24.44;50.89;100710.34;12256593;19;20328;-92
2023/06/21 01:05:34;;;;;;;;;;;25.00;52.00;;;24.46;50.80;100705.63;12251604;19;19911;-91
2023/06/21 01:09:58;;;;;;;;;;;25.00;52.10;;;24.43;51.04;100692.63;12254192;19;19927;-92
2023/06/21 01:14:12;;;;;;;;;;;25.00;52.10;;;24.37;50.85;100696.00;12250264;19;20349;-91
2023/06/21 01:18:15;;;;;;;;;;;25.00;52.20;;;24.24;50.85;100678.69;12251540;19;19922;-92
2023/06/21 01:22:20;;;;;;;;;;;24.90;52.10;;;24.28;50.77;100701.38;12252541;19;19907;-92
2023/06/21 01:26:47;;;;;;;;;;;24.90;52.30;;;24.24;50.82;100693.88;12254672;19;19918;-92
2023/06/21 01:30:50;;;;;;;;;;;24.80;52.30;;;24.17;51.13;100693.78;12254369;19;19922;-92
2023/06/21 01:34:53;;;;;;;;;;;24.80;52.40;;;24.18;51.25;100695.41;12251787;19;19917;-92
2023/06/21 01:38:56;;;;;;;;;;;24.80;52.40;;;24.10;50.97;100686.63;12250464;19;19911;-92
2023/06/21 01:42:58;;;;;;;;;;;24.80;52.50;;;24.18;51.17;100691.94;12247776;19;19914;-91
2023/06/21 01:47:00;;;;;;;;;;;24.80;52.50;;;24.16;51.03;100691.25;12250272;19;19926;-91
2023/06/21 01:51:03;;;;;;;;;;;24.80;52.50;;;24.02;51.32;100666.97;12251852;19;19923;-92
2023/06/21 01:55:09;;;;;;;;;;;24.80;52.50;;;24.10;51.36;100686.63;12251388;19;19971;-91
2023/06/21 01:59:14;;;;;;;;;;;24.70;52.40;;;23.98;51.45;100671.00;12251794;19;19926;-92
2023/06/21 02:03:16;;;;;;;;;;;24.70;52.50;;;24.09;51.34;100691.16;12248315;19;19926;-91
2023/06/21 02:07:19;;;;;;;;;;;24.70;52.50;;;23.80;51.46;100641.91;12251360;19;19910;-92
2023/06/21 02:11:22;;;;;;;;;;;24.70;52.70;;;23.92;51.30;100663.69;12250678;19;19923;-92
2023/06/21 02:15:24;;;;;;;;;;;24.70;52.70;;;24.01;51.32;100683.19;12252363;19;19922;-92
2023/06/21 02:19:25;;;;;;;;;;;24.70;52.70;;;24.00;51.60;100692.16;12251296;19;19910;-92
2023/06/21 02:23:27;;;;;;;;;;;24.70;52.70;;;24.02;51.57;100706.16;12249603;19;19911;-92
2023/06/21 02:27:29;;;;;;;;;;;24.70;52.80;;;23.84;51.54;100731.25;12252297;19;19986;-91
2023/06/21 02:31:34;;;;;;;;;;;24.70;52.80;;;23.85;51.86;100735.56;12250631;19;19931;-92
2023/06/21 02:35:35;;;;;;;;;;;24.60;52.90;;;23.99;51.83;100767.88;12250621;19;19938;-91
2023/06/21 02:39:40;;;;;;;;;;;24.60;52.90;;;23.73;51.67;100718.25;12250500;19;19911;-91
2023/06/21 02:43:42;;;;;;;;;;;24.60;53.00;;;23.94;51.49;100756.88;12247033;19;20302;-91
2023/06/21 02:47:44;;;;;;;;;;;24.60;53.10;;;23.98;51.83;100768.88;12252007;19;19922;-91
2023/06/21 02:51:49;;;;;;;;;;;24.60;53.10;;;23.72;51.51;100726.44;12247942;19;19919;-91
2023/06/21 02:55:50;;;;;;;;;;;24.60;53.10;;;23.95;51.60;100775.41;12248695;19;19936;-91
2023/06/21 02:59:53;;;;;;;;;;;24.60;53.10;;;23.90;51.47;100780.41;12248880;19;19927;-91
2023/06/21 03:03:55;;;;;;;;;;;24.60;53.10;;;23.94;51.52;100787.06;12254954;19;19926;-92
2023/06/21 03:07:57;;;;;;;;;;;24.60;53.00;;;23.78;51.87;100771.09;12252322;19;19923;-91
2023/06/21 03:12:07;;;;;;;;;;;24.60;53.30;;;23.84;51.92;100773.94;12246871;19;20602;-91
2023/06/21 03:16:09;;;;;;;;;;;24.50;53.40;;;23.77;52.08;100751.59;12254030;19;19919;-92
2023/06/21 03:20:14;;;;;;;;;;;24.50;53.40;;;23.77;51.79;100737.44;12262709;19;19982;-93
2023/06/21 03:24:17;;;;;;;;;;;24.50;53.40;;;23.70;51.81;100734.56;12254420;19;20234;-93
2023/06/21 03:28:21;;;;;;;;;;;24.40;53.50;;;23.76;51.92;100749.94;12260388;19;19919;-93
2023/06/21 03:32:23;;;;;;;;;;;24.40;53.60;;;23.59;51.91;100742.94;12278378;19;19910;-93
2023/06/21 03:36:26;;;;;;;;;;;24.40;53.60;;;23.69;52.18;100780.09;12298596;19;19919;-93
2023/06/21 03:40:29;;;;;;;;;;;24.50;53.80;;;23.52;52.13;100752.59;12287907;19;19922;-93
2023/06/21 03:53:07;;;;;;;;;;;24.40;53.70;;;23.58;52.37;100746.59;12284705;19;19947;-93
2023/06/21 04:01:26;;;;;;;;;;;24.40;53.80;;;23.55;52.36;100752.28;12289089;19;19923;-93
2023/06/21 04:05:29;;;;;;;;;;;24.40;53.90;;;23.73;52.08;100776.94;12248322;19;19915;-92
2023/06/21 04:09:31;;;;;;;;;;;24.40;54.00;;;23.72;52.59;100772.59;12248918;19;19953;-92
2023/06/21 04:13:33;;;;;;;;;;;24.40;54.10;;;23.78;52.27;100784.44;12246488;19;19963;-93
2023/06/21 04:17:35;;;;;;;;;;;24.50;54.10;;;23.58;52.64;100742.09;12253053;19;19958;-92
2023/06/21 04:21:38;;;;;;;;;;;24.50;54.30;;;23.73;52.38;100787.59;12250568;19;20382;-94
2023/06/21 04:25:40;;;;;;;;;;;24.50;54.20;;;23.50;52.84;100760.78;12248028;19;19939;-93
2023/06/21 04:29:42;;;;;;;;;;;24.40;54.30;;;23.77;52.64;100807.59;12257804;19;19982;-93
2023/06/21 04:33:44;;;;;;;;;;;24.40;54.40;;;23.73;52.62;100808.94;12246242;19;19983;-93
2023/06/21 04:37:46;;;;;;;;;;;24.50;54.40;;;23.59;52.79;100770.41;12270231;19;19933;-93
2023/06/21 04:41:48;;;;;;;;;;;24.50;54.40;;;23.83;52.93;100827.44;12270783;19;19915;-93
2023/06/21 04:45:49;;;;;;;;;;;24.50;54.50;;;23.85;52.78;100838.78;12266814;19;20432;-92
2023/06/21 04:49:53;;;;;;;;;;;24.60;54.50;;;23.77;52.70;100831.59;12272876;19;19922;-93
2023/06/21 04:53:54;;;;;;;;;;;24.60;54.70;;;23.60;53.01;100813.91;12264132;19;19919;-93
2023/06/21 04:57:58;;;;;;;;;;;24.60;54.60;;;23.80;52.63;100844.59;12265738;19;19922;-93
2023/06/21 05:01:59;;;;;;;;;;;24.60;54.70;;;23.91;52.83;100861.25;12267500;19;19947;-93
2023/06/21 05:06:01;;;;;;;;;;;24.70;54.80;;;23.91;52.79;100853.25;12259454;19;20251;-93
2023/06/21 05:10:08;;;;;;;;;;;24.70;54.90;;;24.03;53.21;100874.09;12260786;19;19946;-93
2023/06/21 05:14:10;;;;;;;;;;;24.70;55.10;;;24.11;53.10;100878.56;12252677;19;19923;-92
2023/06/21 05:18:11;;;;;;;;;;;24.80;55.10;;;24.19;53.39;100889.22;12257787;19;19919;-91
2023/06/21 05:22:12;;;;;;;;;;;25.00;55.30;;;24.20;53.30;100872.22;12254021;19;20344;-91
2023/06/21 05:26:14;;;;;;;;;;;25.00;55.30;;;24.16;53.20;100852.19;12254801;19;19926;-92
2023/06/21 05:30:15;;;;;;;;;;;25.10;55.50;;;24.41;53.04;100877.00;12253895;19;20353;-91
2023/06/21 05:34:16;;;;;;;;;;;25.20;55.60;;;24.38;53.07;100868.50;12252365;19;19978;-90
2023/06/21 05:38:20;;;;;;;;;;;25.20;55.60;;;24.55;53.13;100883.50;12254758;19;19918;-91
2023/06/21 05:42:21;;;;;;;;;;;25.30;56.20;;;24.65;53.64;100876.09;12254622;19;19928;-91
2023/06/21 05:46:23;;;;;;;;;;;25.40;56.00;;;24.83;53.63;100889.22;12253206;19;19935;-90
2023/06/21 05:50:24;;;;;;;;;;;25.50;56.00;;;24.93;53.61;100897.88;12254945;19;19915;-90
2023/06/21 05:54:26;;;;;;;;;;;25.70;56.40;;;24.76;53.56;100858.84;12249814;19;19914;-91
2023/06/21 05:58:28;;;;;;;;;;;25.80;56.30;;;25.11;53.61;100908.31;12253900;19;19982;-89
2023/06/21 06:02:29;;;;;;;;;;;25.80;56.20;;;25.20;53.81;100913.63;12253481;19;19919;-90
2023/06/21 06:06:39;;;;;;;;;;;26.00;56.20;;;25.17;53.56;100896.94;12253495;19;20261;-91
2023/06/21 06:10:41;;;;;;;;;;;26.00;56.10;;;25.25;53.90;100900.53;12252139;19;19925;-91
2023/06/21 06:14:42;;;;;;;;;;;26.10;56.10;;;25.39;53.69;100910.50;12251942;19;19919;-91
2023/06/21 06:18:44;;;;;;;;;;;26.20;56.00;;;25.33;53.72;100896.00;12249830;19;20289;-90
2023/06/21 06:22:47;;;;;;;;;;;26.20;55.90;;;25.43;53.93;100909.13;12248178;19;19921;-90
2023/06/21 06:26:48;;;;;;;;;;;26.30;56.00;;;25.32;53.79;100888.97;12248714;19;19914;-92
2023/06/21 06:30:50;;;;;;;;;;;26.30;56.10;;;25.50;53.86;100914.63;12252344;19;20537;-91
2023/06/21 06:34:51;;;;;;;;;;;26.40;56.20;;;25.52;53.50;100909.91;12251841;19;19915;-91
2023/06/21 06:38:52;;;;;;;;;;;26.40;56.00;;;25.47;53.60;100904.28;12253017;19;19919;-90
2023/06/21 06:42:54;;;;;;;;;;;26.50;56.20;;;25.71;54.03;100935.38;12240078;19;19911;-91
2023/06/21 06:46:55;;;;;;;;;;;26.50;56.30;;;25.57;54.10;100907.53;12250626;19;20380;-92
2023/06/21 06:50:57;;;;;;;;;;;26.50;56.30;;;25.54;53.83;100905.22;12252036;19;19933;-91
2023/06/21 06:54:59;;;;;;;;;;;26.60;56.20;;;25.81;53.85;100947.47;12250215;19;19996;-91
2023/06/21 06:59:00;;;;;;;;;;;26.60;56.30;;;25.81;53.88;100936.75;12248486;19;19919;-92
2023/06/21 07:03:02;;;;;;;;;;;26.60;56.10;;;25.88;54.11;100941.44;12249418;19;20333;-90
2023/06/21 07:07:04;;;;;;;;;;;26.70;56.50;;;25.84;53.69;100932.94;12253249;19;20347;-91
2023/06/21 07:11:06;;;;;;;;;;;26.70;56.20;;;25.92;54.04;100930.19;12250896;19;19930;-90
2023/06/21 07:15:07;;;;;;;;;;;26.80;56.50;;;26.15;53.92;100948.06;12236669;19;19914;-91
2023/06/21 07:19:10;;;;;;;;;;;26.90;56.70;;;26.21;54.13;100950.00;12251471;19;19919;-90
2023/06/21 07:23:13;;;;;;;;;;;27.00;56.70;;;26.34;53.88;100957.44;12249911;19;20352;-90
2023/06/21 07:27:14;;;;;;;;;;;27.10;56.50;;;26.40;54.40;100965.56;12254564;19;19915;-91
2023/06/21 07:31:16;;;;;;;;;;;27.20;56.40;;;26.51;53.89;100977.69;12247108;19;19933;-90
2023/06/21 07:35:18;;;;;;;;;;;27.30;56.40;;;26.57;54.13;100990.38;12253751;19;19955;-90
2023/06/21 07:39:20;;;;;;;;;;;27.40;56.30;;;26.58;54.08;100975.13;12250898;19;19929;-91
2023/06/21 07:43:21;;;;;;;;;;;27.50;56.20;;;26.70;54.50;100981.69;12250173;19;19978;-90
2023/06/21 07:47:23;;;;;;;;;;;27.50;56.30;;;26.83;54.21;101013.22;12249579;19;20364;-91
2023/06/21 07:51:25;;;;;;;;;;;27.60;56.00;;;26.77;53.99;101004.06;12250932;19;20385;-91
2023/06/21 07:55:26;;;;;;;;;;;27.70;55.90;;;26.83;54.03;101024.75;12254424;19;20663;-91
2023/06/21 07:59:28;;;;;;;;;;;27.70;55.70;;;26.82;53.97;101023.09;12252421;19;19986;-91
2023/06/21 08:03:30;;;;;;;;;;;27.70;55.70;;;26.89;54.14;101036.59;12250122;19;20346;-90
2023/06/21 08:07:32;;;;;;;;;;;27.80;55.80;;;26.89;53.95;101032.03;12253022;19;20260;-91
2023/06/21 08:11:33;;;;;;;;;;;27.80;55.80;;;26.81;54.21;101010.69;12260750;19;20006;-90
2023/06/21 08:15:35;;;;;;;;;;;27.80;55.90;;;27.15;54.21;101053.03;12262723;19;20011;-90
2023/06/21 08:19:37;;;;;;;;;;;27.90;56.20;;;27.02;54.17;101019.84;12265216;19;19922;-90
2023/06/21 08:23:38;;;;;;;;;;;28.00;56.00;;;27.42;54.26;101060.66;12258855;19;19951;-91
2023/06/21 08:27:40;;;;;;;;;;;28.20;56.00;;;27.56;53.85;101065.16;12263100;19;19945;-90
2023/06/21 08:31:42;;;;;;;;;;;28.30;56.00;;;27.53;54.38;101042.19;12260925;19;19951;-91
2023/06/21 08:35:43;;;;;;;;;;;28.50;55.90;;;27.77;54.31;101072.41;12263899;19;19918;-90
2023/06/21 08:39:45;;;;;;;;;;;28.60;55.80;;;27.85;54.51;101055.41;12262760;19;19915;-90
2023/06/21 08:43:47;;;;;;;;;;;28.70;55.80;;;27.98;54.02;101060.91;12261081;19;19949;-91
2023/06/21 08:47:49;;;;;;;;;;;28.80;55.60;;;28.05;54.35;101059.09;12263406;19;19915;-90
2023/06/21 08:51:50;;;;;;;;;;;29.00;55.80;;;28.22;53.94;101067.75;12257872;19;19926;-91
2023/06/21 08:55:52;;;;;;;;;;;29.10;55.60;;;28.33;54.20;101058.34;12258079;19;20364;-91
2023/06/21 08:59:59;;;;;;;;;;;29.20;55.50;;;28.52;54.20;101073.00;12258600;19;19922;-90
2023/06/21 09:04:02;;;;;;;;;;;29.40;55.40;;;28.64;54.14;101063.38;12253653;19;19915;-90
2023/06/21 09:08:04;;;;;;;;;;;29.60;55.30;;;28.76;53.99;101075.25;12257288;19;19961;-92
2023/06/21 09:12:07;;;;;;;;;;;29.70;55.10;;;28.93;54.09;101091.09;12254163;19;19926;-91
2023/06/21 09:16:08;;;;;;;;;;;29.80;55.30;;;28.99;54.25;101082.22;12256791;19;19910;-91
2023/06/21 09:20:11;;;;;;;;;;;29.90;55.20;;;29.13;53.59;101085.84;12250377;19;20269;-89
2023/06/21 09:24:13;;;;;;;;;;;30.10;55.20;;;29.32;54.10;101101.25;12245783;19;20376;-90
2023/06/21 09:28:15;;;;;;;;;;;30.20;54.80;;;29.41;53.60;101110.00;12251925;19;19923;-89
2023/06/21 09:32:18;;;;;;;;;;;30.30;54.70;;;29.43;53.67;101103.38;12250656;19;19921;-89
2023/06/21 09:36:20;;;;;;;;;;;30.40;54.40;;;29.43;53.50;101095.31;12254453;19;19915;-90
2023/06/21 09:40:21;;;;;;;;;;;30.50;54.30;;;29.31;53.38;101067.31;12256578;19;19922;-90
2023/06/21 09:44:23;;;;;;;;;;;30.40;54.20;;;29.53;53.63;101097.63;12246118;19;20274;-89
2023/06/21 09:48:24;;;;;;;;;;;30.50;54.20;;;29.41;53.62;101070.47;12258187;19;19928;-90
2023/06/21 09:52:26;;;;;;;;;;;30.50;54.30;;;29.40;53.65;101049.13;12251912;19;19922;-91
2023/06/21 09:56:31;;;;;;;;;;;30.60;54.40;;;29.84;53.44;101097.19;12255577;19;20345;-89
2023/06/21 10:00:36;;;;;;;;;;;30.70;54.10;;;29.96;53.51;101108.19;12255930;19;19915;-90
2023/06/21 10:04:42;;;;;;;;;;;30.80;54.10;;;30.08;53.26;101111.91;12248187;19;19947;-90
2023/06/21 10:08:47;;;;;;;;;;;30.90;54.10;;;30.11;53.02;101105.28;12255105;19;19931;-90
2023/06/21 10:12:51;;;;;;;;;;;31.00;54.00;;;30.04;53.39;101085.63;12249826;19;19923;-90
2023/06/21 10:16:55;;;;;;;;;;;31.10;53.80;;;30.24;53.29;101093.75;12254137;19;19914;-89
2023/06/21 10:21:01;;;;;;;;;;;31.10;53.60;;;30.31;53.02;101083.81;12252290;19;20031;-89
2023/06/21 10:25:04;;;;;;;;;;;31.20;54.00;;;30.50;53.15;101104.56;12246856;19;20349;-89
2023/06/21 10:29:08;;;;;;;;;;;31.40;53.70;;;30.57;52.79;101105.41;12250009;19;19919;-90
2023/06/21 10:33:10;;;;;;;;;;;31.50;52.40;;;30.56;52.90;101100.19;12247644;19;19915;-91
2023/06/21 10:37:48;;;;;;;;;;;31.60;53.50;;;30.74;52.94;101121.16;12240888;19;19923;-91
2023/06/21 10:41:51;;;;;;;;;;;31.60;53.20;;;30.75;52.71;101103.91;12249762;19;19978;-91
2023/06/21 10:45:53;;;;;;;;;;;31.70;53.30;;;30.85;52.43;101115.97;12246630;19;19930;-91
2023/06/21 10:49:58;;;;;;;;;;;31.80;53.20;;;30.76;52.38;101087.53;12251373;19;19903;-91
2023/06/21 10:54:00;;;;;;;;;;;31.80;53.20;;;30.81;52.32;101089.63;12248910;19;20309;-92
2023/06/21 10:58:03;;;;;;;;;;;31.90;53.20;;;31.07;52.33;101121.13;12251970;19;19918;-91
2023/06/21 11:02:05;;;;;;;;;;;31.90;53.10;;;31.08;52.13;101118.25;12242213;19;19970;-89
2023/06/21 11:06:34;;;;;;;;;;;32.00;52.70;;;31.04;52.46;101114.28;12246118;19;20303;-88
2023/06/21 11:10:50;;;;;;;;;;;32.00;52.40;;;31.18;52.32;101133.97;12251908;19;20605;-91
2023/06/21 11:14:51;;;;;;;;;;;32.00;52.40;;;30.88;52.39;101095.03;12252601;19;19934;-91
2023/06/21 11:18:59;;;;;;;;;;;32.00;51.70;;;31.11;51.61;101110.72;12250551;19;19953;-90
2023/06/21 11:23:07;;;;;;;;;;;32.10;52.00;;;31.24;52.15;101129.59;12249752;19;19915;-91
2023/06/21 11:27:09;;;;;;;;;;;32.10;51.90;;;31.25;51.80;101123.19;12254951;19;19946;-90
2023/06/21 11:31:14;;;;;;;;;;;32.20;51.80;;;31.40;51.60;101136.44;12252133;19;19911;-91
2023/06/21 11:35:16;;;;;;;;;;;32.20;52.00;;;31.43;51.68;101136.88;12256651;19;20357;-90
2023/06/21 11:39:21;;;;;;;;;;;32.20;51.00;;;31.55;51.77;101145.13;12253830;19;19922;-93
2023/06/21 11:43:23;;;;;;;;;;;32.30;51.40;;;31.44;51.14;101122.31;12251804;19;19911;-90
2023/06/21 11:47:25;;;;;;;;;;;32.30;51.60;;;31.56;51.57;101138.66;12251193;19;19922;-89
2023/06/21 11:51:31;;;;;;;;;;;32.40;51.40;;;31.54;51.29;101135.34;12250006;19;19918;-91
2023/06/21 11:55:32;;;;;;;;;;;32.40;50.90;;;31.59;51.33;101149.03;12255690;19;19919;-91
2023/06/21 11:59:35;;;;;;;;;;;32.40;51.30;;;31.59;51.26;101140.13;12250962;19;19936;-91
2023/06/21 12:03:37;;;;;;;;;;;32.50;51.10;;;31.72;51.37;101150.88;12252752;19;19938;-91
2023/06/21 12:07:39;;;;;;;;;;;32.50;51.20;;;31.77;50.93;101148.34;12251115;19;19915;-91
2023/06/21 12:11:41;;;;;;;;;;;32.60;50.40;;;31.84;51.07;101164.50;12247783;19;19923;-92
2023/06/21 12:15:56;;;;;;;;;;;32.70;50.70;;;31.88;50.60;101176.56;12249538;19;19919;-90
2023/06/21 12:20:08;;;;;;;;;;;32.70;50.80;;;31.85;50.53;101177.00;12250645;19;19915;-92
2023/06/21 12:24:09;;;;;;;;;;;32.70;50.50;;;31.83;50.38;101174.50;12238659;19;19982;-90
2023/06/21 12:28:13;;;;;;;;;;;32.70;50.50;;;31.85;50.72;101194.03;12252045;19;19923;-90
2023/06/21 12:32:15;;;;;;;;;;;32.70;50.20;;;31.73;50.46;101180.38;12248454;19;19910;-90
2023/06/21 12:36:23;;;;;;;;;;;32.60;50.30;;;31.82;50.51;101188.25;12251253;19;20003;-91
2023/06/21 12:40:24;;;;;;;;;;;32.70;50.10;;;31.84;50.07;101181.56;12246079;19;19910;-90
2023/06/21 12:44:31;;;;;;;;;;;32.60;50.60;;;31.94;50.38;101200.88;12249065;19;19915;-90
2023/06/21 12:48:33;;;;;;;;;;;32.70;50.20;;;31.93;49.92;101193.00;12250988;19;20261;-90
2023/06/21 12:52:35;;;;;;;;;;;32.70;49.90;;;31.89;50.03;101189.00;12248862;19;19982;-90
2023/06/21 12:56:41;;;;;;;;;;;32.80;50.30;;;32.11;50.29;101219.31;12253658;19;19934;-90
2023/06/21 13:00:43;;;;;;;;;;;32.80;50.30;;;32.05;49.70;101199.38;12257183;19;20385;-88
2023/06/21 13:04:46;;;;;;;;;;;32.90;50.10;;;32.19;50.09;101210.97;12255112;19;19931;-89
2023/06/21 13:08:48;;;;;;;;;;;32.90;49.90;;;32.15;49.94;101198.91;12261566;19;19939;-89
2023/06/21 13:12:49;;;;;;;;;;;33.00;49.60;;;32.27;49.67;101213.41;12255240;19;19919;-90
2023/06/21 13:16:51;;;;;;;;;;;33.00;50.30;;;32.35;49.74;101205.03;12259048;19;19915;-90
2023/06/21 13:20:57;;;;;;;;;;;33.10;50.10;;;32.39;49.92;101206.25;12245216;19;19923;-90
2023/06/21 13:24:59;;;;;;;;;;;33.10;49.80;;;32.45;49.30;101209.13;12255004;19;19939;-90
2023/06/21 13:29:00;;;;;;;;;;;33.10;49.50;;;32.48;49.12;101204.13;12259474;19;19962;-89
2023/06/21 13:33:02;;;;;;;;;;;33.20;49.40;;;32.35;49.47;101166.34;12258280;19;20329;-90
2023/06/21 13:37:04;;;;;;;;;;;33.20;49.60;;;32.56;49.04;101200.34;12260155;19;19910;-89
2023/06/21 13:41:07;;;;;;;;;;;33.30;49.50;;;32.62;49.08;101191.34;12260441;19;19927;-87
2023/06/21 13:45:09;;;;;;;;;;;33.30;49.50;;;32.68;49.28;101189.69;12254971;19;20308;-89
2023/06/21 13:49:10;;;;;;;;;;;33.40;49.70;;;32.65;49.08;101180.13;12261854;19;19914;-90
2023/06/21 13:53:12;;;;;;;;;;;33.40;49.80;;;32.71;49.07;101181.94;12256176;19;19923;-90
2023/06/21 13:57:15;;;;;;;;;;;33.40;49.10;;;32.79;48.80;101184.38;12260116;19;19919;-90
2023/06/21 14:01:16;;;;;;;;;;;33.50;49.10;;;32.82;48.83;101177.69;12258689;19;19911;-89
2023/06/21 14:05:20;;;;;;;;;;;33.60;48.50;;;32.89;48.62;101172.19;12256484;19;19930;-90
2023/06/21 14:09:22;;;;;;;;;;;33.60;48.50;;;32.87;48.63;101191.38;12258784;19;19990;-89
2023/06/21 14:13:23;;;;;;;;;;;33.60;48.40;;;32.79;48.79;101176.25;12252080;19;19911;-90
2023/06/21 14:17:25;;;;;;;;;;;33.60;48.40;;;32.86;48.38;101192.41;12255551;19;19922;-90
2023/06/21 14:21:26;;;;;;;;;;;33.60;48.30;;;32.59;48.21;101162.91;12252050;19;20286;-90
2023/06/21 14:25:28;;;;;;;;;;;33.50;48.40;;;32.70;48.08;101176.72;12245984;19;19970;-89
2023/06/21 14:29:30;;;;;;;;;;;33.50;48.30;;;32.71;48.03;101186.53;12248500;19;20309;-90
2023/06/21 14:33:32;;;;;;;;;;;33.40;48.40;;;32.67;47.97;101179.88;12248636;19;19922;-89
2023/06/21 14:37:33;;;;;;;;;;;33.40;48.30;;;32.67;48.27;101182.59;12256455;19;20326;-90
2023/06/21 14:41:35;;;;;;;;;;;33.30;47.70;;;32.59;48.02;101167.47;12248383;19;19930;-89
2023/06/21 14:45:37;;;;;;;;;;;33.30;47.90;;;32.71;47.82;101187.34;12243429;19;19994;-89
2023/06/21 14:49:40;;;;;;;;;;;33.40;47.70;;;32.75;48.09;101182.31;12247416;19;19919;-89
2023/06/21 14:53:41;;;;;;;;;;;33.40;48.20;;;32.76;47.59;101189.41;12241617;19;19926;-90
2023/06/21 14:57:43;;;;;;;;;;;33.40;47.20;;;32.86;47.65;101200.53;12248276;19;19918;-89
2023/06/21 15:01:45;;;;;;;;;;;33.50;48.10;;;32.80;47.25;101186.00;12239771;19;20003;-89
2023/06/21 15:05:50;;;;;;;;;;;33.50;47.70;;;32.82;47.75;101199.34;12242067;19;19926;-89
2023/06/21 15:09:53;;;;;;;;;;;33.50;47.70;;;32.89;47.60;101208.19;12243784;19;19923;-89
2023/06/21 15:13:55;;;;;;;;;;;33.50;47.90;;;32.87;47.30;101206.78;12241430;19;19951;-89
2023/06/21 15:17:58;;;;;;;;;;;33.50;47.80;;;32.59;47.18;101168.31;12242929;19;19923;-89
2023/06/21 15:21:59;;;;;;;;;;;33.50;47.70;;;32.84;46.93;101191.84;12240080;19;19923;-89
2023/06/21 15:26:01;;;;;;;;;;;33.50;47.60;;;32.74;47.07;101188.78;12239788;19;19947;-89
2023/06/21 15:30:03;;;;;;;;;;;33.50;47.60;;;32.83;46.90;101204.50;12242643;19;19935;-89
2023/06/21 15:34:11;;;;;;;;;;;33.50;47.30;;;32.82;46.83;101212.88;12238796;19;19919;-90
2023/06/21 15:38:12;;;;;;;;;;;33.50;47.30;;;32.80;47.09;101207.66;12241786;19;19927;-90
2023/06/21 15:42:14;;;;;;;;;;;33.40;47.50;;;32.71;47.00;101198.16;12239669;19;19925;-89
2023/06/21 15:46:17;;;;;;;;;;;33.40;47.40;;;32.75;46.56;101207.47;12241585;19;19947;-89
2023/06/21 15:50:18;;;;;;;;;;;33.40;47.50;;;32.76;46.71;101214.56;12242144;19;19978;-90
2023/06/21 15:54:20;;;;;;;;;;;33.40;47.30;;;32.74;46.48;101222.06;12238378;19;19934;-89
2023/06/21 15:58:21;;;;;;;;;;;33.30;46.60;;;32.71;46.52;101219.81;12245061;19;19923;-89
2023/06/21 16:02:24;;;;;;;;;;;33.30;46.90;;;32.64;46.56;101215.50;12240124;19;20348;-89
2023/06/21 16:06:26;;;;;;;;;;;33.20;46.60;;;32.52;46.65;101199.16;12242340;19;19915;-89
2023/06/21 16:10:28;;;;;;;;;;;33.20;46.50;;;32.56;46.37;101216.56;12241883;19;19919;-89
2023/06/21 16:14:29;;;;;;;;;;;33.10;46.80;;;32.52;46.46;101216.19;12239717;19;19922;-89
2023/06/21 16:18:31;;;;;;;;;;;33.10;47.00;;;32.38;45.97;101198.38;12242364;19;20377;-89
2023/06/21 16:22:32;;;;;;;;;;;33.10;46.60;;;32.43;46.15;101217.44;12239294;19;20340;-89
2023/06/21 16:26:34;;;;;;;;;;;33.00;46.70;;;32.40;46.11;101218.72;12239683;19;19914;-89
2023/06/21 16:30:35;;;;;;;;;;;32.90;46.50;;;32.18;46.07;101199.28;12246453;19;19927;-89
2023/06/21 16:34:37;;;;;;;;;;;32.90;46.30;;;32.29;45.86;101221.28;12252065;19;19932;-89
2023/06/21 16:38:39;;;;;;;;;;;32.90;46.60;;;32.25;45.82;101225.47;12261592;19;19921;-89
2023/06/21 16:42:41;;;;;;;;;;;32.80;46.60;;;32.15;45.94;101210.53;12258329;19;19932;-89
2023/06/21 16:46:43;;;;;;;;;;;32.70;46.60;;;32.04;45.70;101197.72;12261566;19;19991;-89
2023/06/21 16:50:45;;;;;;;;;;;32.70;46.50;;;32.20;45.92;101238.81;12260929;19;19911;-89
2023/06/21 16:54:47;;;;;;;;;;;32.70;46.60;;;32.20;45.76;101236.13;12260486;19;19926;-88
2023/06/21 16:58:50;;;;;;;;;;;32.70;46.60;;;32.13;45.43;101239.66;12262182;19;20238;-89
2023/06/21 17:02:52;;;;;;;;;;;32.70;46.20;;;32.08;45.59;101234.09;12257308;19;20260;-89
2023/06/21 17:06:54;;;;;;;;;;;32.60;46.10;;;31.99;45.76;101226.44;12251870;19;20254;-89
2023/06/21 17:10:56;;;;;;;;;;;32.70;46.10;;;32.09;45.52;101254.66;12259362;19;20295;-88
2023/06/21 17:14:57;;;;;;;;;;;32.60;46.30;;;32.05;45.69;101261.53;12258787;19;19915;-89
2023/06/21 17:18:59;;;;;;;;;;;32.60;46.20;;;32.07;45.18;101274.81;12256714;19;19978;-89
2023/06/21 17:23:01;;;;;;;;;;;32.60;46.20;;;32.00;45.30;101276.72;12254661;19;20270;-88
2023/06/21 17:27:02;;;;;;;;;;;32.50;45.90;;;32.02;45.43;101294.38;12255081;19;19940;-90
2023/06/21 17:31:04;;;;;;;;;;;32.50;46.20;;;31.85;45.35;101260.75;12256364;19;19923;-90
2023/06/21 17:35:08;;;;;;;;;;;32.50;46.40;;;31.75;45.29;101270.09;12252890;19;19938;-90
2023/06/21 17:39:10;;;;;;;;;;;32.50;46.20;;;31.81;44.94;101300.00;12256760;19;19922;-90
2023/06/21 17:43:11;;;;;;;;;;;32.40;46.10;;;31.75;44.97;101288.19;12250769;19;19921;-89
2023/06/21 17:47:13;;;;;;;;;;;32.30;46.00;;;31.66;44.97;101284.88;12251752;19;19922;-89
2023/06/21 17:51:15;;;;;;;;;;;32.30;45.90;;;31.58;45.08;101286.97;12251118;19;19927;-89
2023/06/21 17:55:17;;;;;;;;;;;32.20;45.90;;;31.61;45.08;101303.59;12251217;19;19929;-89
2023/06/21 17:59:19;;;;;;;;;;;32.10;46.10;;;31.42;45.29;101280.97;12252002;19;19952;-89
2023/06/21 18:03:22;;;;;;;;;;;32.00;46.00;;;31.50;44.82;101310.44;12249218;19;19978;-89
2023/06/21 18:07:24;;;;;;;;;;;32.00;46.00;;;31.42;45.19;101307.13;12245981;19;19925;-89
2023/06/21 18:11:25;;;;;;;;;;;31.90;46.00;;;31.36;45.40;101314.16;12247291;19;19919;-89
2023/06/21 18:15:27;;;;;;;;;;;31.90;45.90;;;31.33;44.79;101332.66;12253038;19;19915;-90
2023/06/21 18:19:28;;;;;;;;;;;31.80;45.90;;;31.24;44.75;101332.84;12250275;19;19987;-90
2023/06/21 18:23:30;;;;;;;;;;;31.70;45.70;;;31.09;44.84;101324.13;12246404;19;19947;-89
2023/06/21 18:27:31;;;;;;;;;;;31.70;46.00;;;31.12;44.77;101337.19;12249181;19;19915;-89
2023/06/21 18:31:32;;;;;;;;;;;31.60;46.00;;;31.06;44.78;101335.34;12243006;19;19978;-88